Alpine, AL

6:15 PM CDT on July 26, 2016 (GMT -0500)
KALTALLA6 | | Change Station

Elev 596 ft 33.40 °N, 86.12 °W | Updated 3 minutes ago

Partly Cloudy
Partly Cloudy
92.7 °F
Feels Like 105 °F
N
0.0
Wind Variable Wind from South
Gusts 1.0 mph

Today
High -- | Low -- °F
--% Chance of Precip.
Yesterday
High -- | Low -- °F
Precip. -- in
Pressure 29.93 in
Visibility 10.0 miles
Clouds Few 8500 ft
Heat Index 105 °F
Dew Point 76 °F
Humidity 58%
Rainfall 0.02 in
Snow Depth Not available.
5:53 AM 7:48 PM
Waning Gibbous, 50% visible
METAR KANB 262253Z AUTO 16006KT 10SM FEW085 34/20 A2997 RMK AO2 SLP135 T03390200
Pressure 29.93 in
Visibility 10.0 miles
Clouds Few 8500 ft
Heat Index 105 °F
Dew Point 76 °F
Humidity 58%
Rainfall 0.02 in
Snow Depth Not available.
5:53 AM 7:48 PM
Waning Gibbous, 50% visible
METAR KANB 262253Z AUTO 16006KT 10SM FEW085 34/20 A2997 RMK AO2 SLP135 T03390200

10-Day Weather Forecast

Almanac

Astronomy

Jul. 26, 2016 Rise Set
Actual Time
Civil Twilight
Nautical Twilight
Astronomical Twilight
Moon
Length of Visible Light
Length of Day
Tomorrow will be .
, % of the Moon is Illuminated

Today's Extremes

State Highs State Lows

Community

WunderPhotos

Upload Photos

1,927,729 photos uploaded!

WunderBlog® & News

Nearby

Air Quality

  Air Quality AQ Index Pollutant
Not available.

Snow Depth

Station Depth Elevation

Earthquake Activity

City Distance Mag. Time & Date
Minimum magnitude displayed is 2.5.

Coastal Water Temperatures

Place Temperature

Stations

Nearby Weather Stations

Station Location Temp. Windchill Dew Point Humidity Wind Precip. Elev Updated Type
                   

Watches & Warnings

There are currently no watches in effect.